OEMA/MED METAR and TAF weather

Enter ICAO airport designator
Station Type Date Time Source
OEMA METAR 2020/04/03 23:00 UTC NOAA

OEMA 032300Z 00000KT CAVOK 20/M21 Q1015 NOSIG


Station Type Date Time Source
OEMA Decoded METAR 2020/04/03 23:00 UTC NOAA

Madinah, Saudi Arabia (OEMA) 24-33N 039-42E 636M
Apr 03, 2020 - 07:00 PM EDT / 2020.04.03 2300 UTC
Wind: Calm:0
Visibility: greater than 7 mile(s):0
Temperature: 68 F (20 C)
Dew Point: -5 F (-21 C)
Relative Humidity: 4%
Pressure (altimeter): 29.97 in. Hg (1015 hPa)
ob: OEMA 032300Z 00000KT CAVOK 20/M21 Q1015 NOSIG
cycle: 23

Station Type Date Time Source
OEMA TAF 2020/04/03 12:06 UTC NOAA

TAF OEMA 031100Z 0312/0418 29012KT CAVOK
BECMG 0318/0320 VRB03KT
BECMG 0404/0406 09010KT

Example: see airport list